ENBL/FDE METAR and TAF weather

Enter ICAO airport designator
Station Type Date Time Source
ENBL METAR 2020/07/02 17:50 UTC NOAA

ENBL 021750Z 18003KT 9999 VCSH FEW012 SCT020 BKN030 07/04 Q1005


Station Type Date Time Source
ENBL Decoded METAR 2020/07/02 17:50 UTC NOAA

Forde / Bringeland, Norway (ENBL) 61-27N 005-52E
Jul 02, 2020 - 01:50 PM EDT / 2020.07.02 1750 UTC
Wind: from the S (180 degrees) at 3 MPH (3 KT):0
Visibility: greater than 7 mile(s):0
Sky conditions: mostly cloudy
Weather: showers in the vicinity
Temperature: 44 F (7 C)
Dew Point: 39 F (4 C)
Relative Humidity: 81%
Pressure (altimeter): 29.68 in. Hg (1005 hPa)
ob: ENBL 021750Z 18003KT 9999 VCSH FEW012 SCT020 BKN030 07/04 Q1005
cycle: 18

Station Type Date Time Source
ENBL TAF UTC NOAA

Error!

Example: see airport list